createdAt,value
2023-01-13T00:00:29.774Z,46.85
2023-01-13T00:02:56.243Z,47.43
2023-01-13T00:05:22.655Z,47.25
2023-01-13T00:07:49.086Z,47.16
2023-01-13T00:10:15.497Z,47.25
2023-01-13T00:12:41.930Z,46.87
2023-01-13T00:15:08.360Z,46.83
2023-01-13T00:17:34.778Z,47.07
2023-01-13T00:20:01.196Z,47.30
2023-01-13T00:22:27.677Z,47.55
2023-01-13T00:24:54.102Z,47.11
2023-01-13T00:27:20.524Z,47.48
2023-01-13T00:29:46.965Z,47.35
2023-01-13T00:32:13.399Z,47.07
2023-01-13T00:34:39.809Z,46.92
2023-01-13T00:37:06.228Z,47.23
2023-01-13T00:39:32.652Z,47.42
2023-01-13T00:41:59.068Z,47.11
2023-01-13T00:44:25.487Z,47.37
2023-01-13T00:46:52.057Z,47.01
2023-01-13T00:49:18.490Z,46.99
2023-01-13T00:51:44.910Z,47.21
2023-01-13T00:54:11.341Z,47.10
2023-01-13T00:56:40.786Z,46.86
2023-01-13T00:59:07.770Z,47.05
2023-01-13T01:01:34.292Z,46.88
2023-01-13T01:04:00.782Z,47.37
2023-01-13T01:06:27.200Z,47.13
2023-01-13T01:08:53.630Z,47.11
2023-01-13T01:11:20.048Z,46.86
2023-01-13T01:13:46.466Z,47.07
2023-01-13T01:16:12.932Z,46.89
2023-01-13T01:18:39.471Z,46.86
2023-01-13T01:21:05.880Z,46.91
2023-01-13T01:23:32.309Z,47.04
2023-01-13T01:25:58.730Z,47.32
2023-01-13T01:28:25.145Z,46.81
2023-01-13T01:30:51.558Z,46.44
2023-01-13T01:33:17.984Z,46.81
2023-01-13T01:35:44.428Z,46.55
2023-01-13T01:38:10.836Z,46.60
2023-01-13T01:40:37.246Z,46.61
2023-01-13T01:43:03.680Z,46.50
2023-01-13T01:45:30.093Z,46.49
2023-01-13T01:47:56.513Z,46.00
2023-01-13T01:50:22.934Z,46.19
2023-01-13T01:52:49.373Z,46.18
2023-01-13T01:55:15.803Z,46.17
2023-01-13T01:57:42.243Z,46.18
2023-01-13T02:00:08.717Z,45.88
2023-01-13T02:02:35.138Z,45.81
2023-01-13T02:05:01.587Z,45.92
2023-01-13T02:07:28.045Z,46.13
2023-01-13T02:09:54.469Z,45.83
2023-01-13T02:12:20.885Z,45.93
2023-01-13T02:14:47.341Z,45.99
2023-01-13T02:17:13.787Z,46.30
2023-01-13T02:19:40.202Z,45.78
2023-01-13T02:22:06.625Z,45.50
2023-01-13T02:24:33.069Z,45.74
2023-01-13T02:26:59.671Z,45.54
2023-01-13T02:29:26.152Z,45.24
2023-01-13T02:31:52.695Z,45.60
2023-01-13T02:34:19.149Z,45.87
2023-01-13T02:36:45.592Z,45.43
2023-01-13T02:39:12.035Z,45.41
2023-01-13T02:41:38.456Z,45.72
2023-01-13T02:44:04.878Z,45.80
2023-01-13T02:46:31.287Z,45.40
2023-01-13T02:48:57.727Z,45.34
2023-01-13T02:51:24.146Z,45.47
2023-01-13T02:53:50.540Z,45.63
2023-01-13T02:56:16.977Z,45.19
2023-01-13T02:58:43.387Z,45.07
2023-01-13T03:01:09.820Z,45.28
2023-01-13T03:03:36.246Z,45.55
2023-01-13T03:06:02.590Z,45.20
2023-01-13T03:08:28.966Z,45.28
2023-01-13T03:10:55.339Z,45.19
2023-01-13T03:13:21.695Z,45.34
2023-01-13T03:15:48.048Z,45.06
2023-01-13T03:18:14.401Z,45.03
2023-01-13T03:20:40.754Z,44.96
2023-01-13T03:23:07.141Z,45.30
2023-01-13T03:25:33.525Z,45.07
2023-01-13T03:27:59.899Z,44.54
2023-01-13T03:30:26.386Z,45.00
2023-01-13T03:32:52.736Z,44.77
2023-01-13T03:35:19.073Z,44.74
2023-01-13T03:37:45.446Z,45.16
2023-01-13T03:40:11.905Z,44.76
2023-01-13T03:42:38.298Z,44.75
2023-01-13T03:45:04.662Z,44.79
2023-01-13T03:47:31.062Z,44.64
2023-01-13T03:49:57.428Z,44.67
2023-01-13T03:52:23.777Z,44.45
2023-01-13T03:54:50.147Z,44.45
2023-01-13T03:57:16.532Z,44.49
2023-01-13T03:59:42.910Z,44.46
2023-01-13T04:02:09.432Z,44.37
2023-01-13T04:04:35.843Z,44.75
2023-01-13T04:07:02.217Z,44.38
2023-01-13T04:09:28.599Z,44.49
2023-01-13T04:11:54.961Z,44.39
2023-01-13T04:14:21.322Z,44.21
2023-01-13T04:16:47.696Z,44.12
2023-01-13T04:19:14.080Z,44.26
2023-01-13T04:21:40.445Z,44.02
2023-01-13T04:24:06.844Z,43.99
2023-01-13T04:26:33.219Z,43.97
2023-01-13T04:28:59.596Z,44.13
2023-01-13T04:31:25.969Z,44.12
2023-01-13T04:33:52.362Z,44.18
2023-01-13T04:36:18.745Z,43.87
2023-01-13T04:38:45.095Z,43.85
2023-01-13T04:41:11.462Z,43.82
2023-01-13T04:43:37.873Z,43.67
2023-01-13T04:46:04.350Z,43.72
2023-01-13T04:48:30.787Z,43.73
2023-01-13T04:50:57.184Z,43.62
2023-01-13T04:53:23.553Z,43.58
2023-01-13T04:55:49.924Z,43.66
2023-01-13T04:58:16.294Z,43.55
2023-01-13T05:00:42.686Z,43.76
2023-01-13T05:03:09.031Z,43.64
2023-01-13T05:05:35.499Z,43.56
2023-01-13T05:08:01.871Z,43.37
2023-01-13T05:10:28.241Z,43.66
2023-01-13T05:12:54.600Z,43.32
2023-01-13T05:15:20.954Z,43.21
2023-01-13T05:17:47.318Z,43.22
2023-01-13T05:20:13.700Z,43.11
2023-01-13T05:22:40.059Z,43.14
2023-01-13T05:25:06.449Z,43.18
2023-01-13T05:27:32.820Z,43.16
2023-01-13T05:29:59.288Z,43.10
2023-01-13T05:32:25.627Z,42.50
2023-01-13T05:34:52.026Z,42.65
2023-01-13T05:37:18.391Z,42.85
2023-01-13T05:39:44.861Z,42.75
2023-01-13T05:42:11.217Z,42.52
2023-01-13T05:44:37.564Z,42.42
2023-01-13T05:47:03.919Z,42.85
2023-01-13T05:49:30.278Z,42.73
2023-01-13T05:51:56.678Z,42.57
2023-01-13T05:54:23.033Z,42.72
2023-01-13T05:56:49.423Z,42.66
2023-01-13T05:59:15.798Z,42.84
2023-01-13T06:01:42.165Z,42.69
2023-01-13T06:04:08.551Z,42.60
2023-01-13T06:06:34.909Z,42.37
2023-01-13T06:09:01.304Z,42.51
2023-01-13T06:11:27.653Z,42.40
2023-01-13T06:13:53.997Z,42.30
2023-01-13T06:16:20.411Z,42.18
2023-01-13T06:18:46.770Z,42.26
2023-01-13T06:21:13.132Z,42.29
2023-01-13T06:23:39.503Z,42.19
2023-01-13T06:26:05.876Z,42.05
2023-01-13T06:28:32.249Z,41.84
2023-01-13T06:30:58.642Z,42.13
2023-01-13T06:33:25.027Z,41.89
2023-01-13T06:35:51.418Z,42.01
2023-01-13T06:38:17.786Z,42.06
2023-01-13T06:40:44.151Z,42.17
2023-01-13T06:43:10.495Z,41.93
2023-01-13T06:45:36.880Z,41.85
2023-01-13T06:48:03.247Z,41.76
2023-01-13T06:50:29.619Z,41.87
2023-01-13T06:52:56.006Z,41.77
2023-01-13T06:55:22.355Z,41.96
2023-01-13T06:57:48.718Z,41.88
2023-01-13T07:00:15.076Z,41.92
2023-01-13T07:02:41.569Z,41.42
2023-01-13T07:05:07.953Z,41.69
2023-01-13T07:07:34.309Z,41.78
2023-01-13T07:10:00.676Z,41.61
2023-01-13T07:12:27.024Z,41.56
2023-01-13T07:14:53.410Z,41.47
2023-01-13T07:17:19.775Z,41.45
2023-01-13T07:19:46.149Z,41.46
2023-01-13T07:22:12.498Z,41.41
2023-01-13T07:24:38.849Z,41.56
2023-01-13T07:27:05.212Z,41.59
2023-01-13T07:29:31.584Z,41.69
2023-01-13T07:31:58.077Z,41.35
2023-01-13T07:34:24.460Z,41.48
2023-01-13T07:36:50.837Z,41.05
2023-01-13T07:39:17.208Z,41.38
2023-01-13T07:41:43.560Z,41.32
2023-01-13T07:44:09.907Z,41.51
2023-01-13T07:46:36.286Z,41.20
2023-01-13T07:49:02.659Z,41.42
2023-01-13T07:51:29.028Z,41.45
2023-01-13T07:53:55.379Z,41.43
2023-01-13T07:56:21.763Z,41.19
2023-01-13T07:58:48.118Z,41.24
2023-01-13T08:01:14.592Z,41.08
2023-01-13T08:03:41.138Z,41.29
2023-01-13T08:06:07.565Z,41.10
2023-01-13T08:08:33.959Z,41.16
2023-01-13T08:11:00.345Z,41.22
2023-01-13T08:13:26.707Z,41.00
2023-01-13T08:15:53.101Z,41.04
2023-01-13T08:18:19.464Z,41.04
2023-01-13T08:20:45.820Z,40.89
2023-01-13T08:23:12.215Z,40.72
2023-01-13T08:25:38.607Z,41.06
2023-01-13T08:28:04.975Z,40.76
2023-01-13T08:30:31.379Z,40.46
2023-01-13T08:32:57.755Z,40.73
2023-01-13T08:35:24.137Z,40.82
2023-01-13T08:37:50.509Z,40.37
2023-01-13T08:40:16.937Z,40.75
2023-01-13T08:42:43.306Z,40.64
2023-01-13T08:45:09.666Z,40.35
2023-01-13T08:47:36.027Z,40.62
2023-01-13T08:50:02.520Z,40.47
2023-01-13T08:52:28.923Z,40.54
2023-01-13T08:54:55.293Z,39.82
2023-01-13T08:57:21.744Z,40.00
2023-01-13T08:59:48.127Z,39.84
2023-01-13T09:02:14.593Z,40.49
2023-01-13T09:04:41.023Z,40.20
2023-01-13T09:07:07.409Z,40.24
2023-01-13T09:09:33.910Z,40.09
2023-01-13T09:12:00.292Z,39.51
2023-01-13T09:14:26.655Z,39.86
2023-01-13T09:16:53.015Z,39.81
2023-01-13T09:19:19.404Z,39.64
2023-01-13T09:21:45.793Z,39.83
2023-01-13T09:24:12.208Z,39.81
2023-01-13T09:26:38.584Z,39.63
2023-01-13T09:29:04.958Z,39.72
2023-01-13T09:31:31.365Z,39.90
2023-01-13T09:33:57.776Z,40.29
2023-01-13T09:36:24.142Z,39.73
2023-01-13T09:38:50.519Z,40.01
2023-01-13T09:41:16.885Z,39.46
2023-01-13T09:43:43.269Z,39.58
2023-01-13T09:46:09.640Z,39.31
2023-01-13T09:48:36.088Z,39.85
2023-01-13T09:51:02.488Z,39.45
2023-01-13T09:53:28.875Z,39.61
2023-01-13T09:55:55.247Z,39.85
2023-01-13T09:58:21.670Z,39.56
2023-01-13T10:00:48.107Z,39.67
2023-01-13T10:03:14.529Z,39.46
2023-01-13T10:05:40.897Z,39.61
2023-01-13T10:08:07.266Z,39.40
2023-01-13T10:10:33.620Z,39.57
2023-01-13T10:13:00.104Z,39.89
2023-01-13T10:15:26.642Z,39.78
2023-01-13T10:17:53.023Z,39.79
2023-01-13T10:20:19.377Z,39.68
2023-01-13T10:22:45.739Z,39.31
2023-01-13T10:25:12.133Z,39.16
2023-01-13T10:27:38.488Z,38.89
2023-01-13T10:30:04.894Z,39.20
2023-01-13T10:32:31.283Z,39.09
2023-01-13T10:34:57.654Z,38.73
2023-01-13T10:37:24.037Z,39.10
2023-01-13T10:39:50.407Z,38.73
2023-01-13T10:42:16.788Z,38.71
2023-01-13T10:44:43.164Z,38.76
2023-01-13T10:47:09.535Z,39.12
2023-01-13T10:49:35.910Z,38.47
2023-01-13T10:52:02.374Z,38.85
2023-01-13T10:54:28.787Z,38.74
2023-01-13T10:56:55.153Z,39.24
2023-01-13T10:59:21.524Z,39.14
2023-01-13T11:01:48.079Z,39.14
2023-01-13T11:04:14.446Z,39.32
2023-01-13T11:06:40.820Z,39.24
2023-01-13T11:09:07.215Z,39.25
2023-01-13T11:11:33.568Z,39.55
2023-01-13T11:13:59.934Z,39.57
2023-01-13T11:16:26.336Z,39.51
2023-01-13T11:18:52.719Z,39.51
2023-01-13T11:21:19.128Z,39.73
2023-01-13T11:23:45.497Z,39.58
2023-01-13T11:26:11.864Z,39.41
2023-01-13T11:28:38.238Z,39.72
2023-01-13T11:31:04.680Z,39.69
2023-01-13T11:33:31.103Z,39.35
2023-01-13T11:35:57.496Z,39.48
2023-01-13T11:38:23.877Z,39.52
2023-01-13T11:40:50.250Z,39.43
2023-01-13T11:43:16.606Z,39.09
2023-01-13T11:45:42.964Z,39.41
2023-01-13T11:48:09.393Z,39.52
2023-01-13T11:50:35.739Z,39.36
2023-01-13T11:53:02.106Z,39.42
2023-01-13T11:55:28.477Z,39.28
2023-01-13T11:57:54.837Z,39.38
2023-01-13T12:00:21.219Z,39.14
2023-01-13T12:02:47.660Z,39.19
2023-01-13T12:05:14.095Z,38.94
2023-01-13T12:07:40.461Z,38.80
2023-01-13T12:10:11.624Z,38.83
2023-01-13T12:12:39.540Z,39.02
2023-01-13T12:15:05.916Z,38.95
2023-01-13T12:17:32.385Z,38.87
2023-01-13T12:19:58.748Z,39.24
2023-01-13T12:22:25.115Z,39.15
2023-01-13T12:24:51.593Z,39.01
2023-01-13T12:27:18.129Z,38.97
2023-01-13T12:29:44.526Z,38.56
2023-01-13T12:32:10.901Z,38.45
2023-01-13T12:34:37.418Z,38.79
2023-01-13T12:37:03.959Z,38.94
2023-01-13T12:39:30.326Z,38.27
2023-01-13T12:41:56.803Z,38.29
2023-01-13T12:44:23.214Z,38.26
2023-01-13T12:46:49.573Z,38.32
2023-01-13T12:49:15.960Z,38.29
2023-01-13T12:51:42.314Z,38.34
2023-01-13T12:54:08.687Z,38.91
2023-01-13T12:56:36.484Z,38.29
2023-01-13T12:59:03.096Z,37.93
2023-01-13T13:01:29.523Z,38.33
2023-01-13T13:03:55.895Z,38.19
2023-01-13T13:06:22.269Z,38.14
2023-01-13T13:08:48.641Z,38.25
2023-01-13T13:11:15.074Z,38.42
2023-01-13T13:13:41.460Z,38.03
2023-01-13T13:16:07.827Z,38.22
2023-01-13T13:18:34.185Z,38.33
2023-01-13T13:21:03.645Z,38.67
2023-01-13T13:23:30.550Z,38.29
2023-01-13T13:25:56.916Z,38.57
2023-01-13T13:28:23.306Z,38.40
2023-01-13T13:30:49.709Z,38.46
2023-01-13T13:33:16.103Z,38.36
2023-01-13T13:35:42.484Z,38.51
2023-01-13T13:38:08.868Z,38.49
2023-01-13T13:40:35.223Z,38.43
2023-01-13T13:43:01.587Z,38.33
2023-01-13T13:45:27.975Z,38.05
2023-01-13T13:47:54.347Z,38.43
2023-01-13T13:50:20.710Z,38.26
2023-01-13T13:52:47.345Z,38.46
2023-01-13T13:55:13.697Z,38.46
2023-01-13T13:57:40.248Z,38.28
2023-01-13T14:00:06.694Z,38.60
2023-01-13T14:02:33.071Z,38.00
2023-01-13T14:04:59.592Z,38.47
2023-01-13T14:07:25.976Z,38.07
2023-01-13T14:09:52.299Z,37.99
2023-01-13T14:12:18.692Z,38.13
2023-01-13T14:14:45.057Z,38.58
2023-01-13T14:17:11.434Z,38.24
2023-01-13T14:19:37.784Z,38.43
2023-01-13T14:22:04.170Z,38.46
2023-01-13T14:24:30.549Z,38.78
2023-01-13T14:26:56.927Z,38.85
2023-01-13T14:29:23.277Z,38.62
2023-01-13T14:31:49.642Z,38.50
2023-01-13T14:34:31.123Z,38.78
2023-01-13T14:36:58.022Z,38.47
2023-01-13T14:39:24.381Z,38.60
2023-01-13T14:41:50.762Z,38.82
2023-01-13T14:44:17.142Z,38.75
2023-01-13T14:46:43.512Z,38.65
2023-01-13T14:49:09.888Z,38.59
2023-01-13T14:51:36.367Z,38.96
2023-01-13T14:54:02.756Z,38.80
2023-01-13T14:56:31.107Z,38.64
2023-01-13T14:58:57.552Z,38.90
2023-01-13T15:01:24.041Z,38.74
2023-01-13T15:03:50.470Z,38.76
2023-01-13T15:06:16.846Z,38.82
2023-01-13T15:08:43.215Z,38.66
2023-01-13T15:11:09.576Z,38.60
2023-01-13T15:13:36.030Z,38.67
2023-01-13T15:16:02.565Z,38.33
2023-01-13T15:18:28.953Z,38.49
2023-01-13T15:20:55.327Z,38.62
2023-01-13T15:23:21.694Z,38.52
2023-01-13T15:25:48.063Z,38.61
2023-01-13T15:28:14.447Z,38.57
2023-01-13T15:30:40.813Z,38.53
2023-01-13T15:33:07.167Z,38.54
2023-01-13T15:35:33.537Z,38.50
2023-01-13T15:37:59.938Z,38.81
2023-01-13T15:40:26.308Z,38.68
2023-01-13T15:42:52.668Z,38.44
2023-01-13T15:45:19.020Z,38.43
2023-01-13T15:47:45.413Z,38.62
2023-01-13T15:50:11.776Z,38.28
2023-01-13T15:52:38.161Z,38.45
2023-01-13T15:55:04.538Z,38.58
2023-01-13T15:57:30.916Z,38.37
2023-01-13T15:59:57.279Z,38.34
2023-01-13T16:02:23.666Z,38.30
2023-01-13T16:04:50.032Z,38.30
2023-01-13T16:07:16.398Z,38.48
2023-01-13T16:09:42.750Z,38.41
2023-01-13T16:12:09.155Z,38.42
2023-01-13T16:14:35.517Z,38.57
2023-01-13T16:17:01.896Z,38.45
2023-01-13T16:19:28.279Z,38.59
2023-01-13T16:21:54.644Z,38.62
2023-01-13T16:24:21.041Z,38.50
2023-01-13T16:26:47.436Z,38.63
2023-01-13T16:29:13.835Z,38.59
2023-01-13T16:31:40.356Z,38.57
2023-01-13T16:34:06.803Z,38.67
2023-01-13T16:36:33.186Z,38.60
2023-01-13T16:38:59.585Z,38.48
2023-01-13T16:41:25.990Z,38.58
2023-01-13T16:43:52.355Z,38.22
2023-01-13T16:46:18.753Z,38.33
2023-01-13T16:48:45.147Z,38.22
2023-01-13T16:51:11.528Z,38.70
2023-01-13T16:53:37.885Z,38.55
2023-01-13T16:56:04.282Z,38.26
2023-01-13T16:58:30.641Z,38.15
2023-01-13T17:00:57.056Z,37.95
2023-01-13T17:03:23.506Z,38.36
2023-01-13T17:05:49.886Z,38.02
2023-01-13T17:08:16.240Z,38.32
2023-01-13T17:10:42.616Z,38.41
2023-01-13T17:13:15.875Z,38.08
2023-01-13T17:15:43.001Z,38.41
2023-01-13T17:18:09.342Z,38.25
2023-01-13T17:20:35.719Z,38.26
2023-01-13T17:23:02.085Z,38.26
2023-01-13T17:25:28.442Z,38.48
2023-01-13T17:27:54.794Z,38.03
2023-01-13T17:30:21.161Z,38.30
2023-01-13T17:32:47.554Z,38.19
2023-01-13T17:35:13.988Z,38.22
2023-01-13T17:37:40.344Z,38.24
2023-01-13T17:40:06.731Z,38.40
2023-01-13T17:42:33.073Z,38.35
2023-01-13T17:44:59.440Z,38.25
2023-01-13T17:47:25.805Z,38.42
2023-01-13T17:49:52.187Z,38.12
2023-01-13T17:52:18.554Z,38.31
2023-01-13T17:54:44.939Z,38.49
2023-01-13T17:57:11.277Z,38.48
2023-01-13T17:59:37.640Z,38.17
2023-01-13T18:02:04.177Z,38.10
2023-01-13T18:04:30.667Z,38.12
2023-01-13T18:06:57.017Z,38.08
2023-01-13T18:09:23.413Z,38.23
2023-01-13T18:11:49.820Z,38.24
2023-01-13T18:14:16.183Z,38.18
2023-01-13T18:16:42.551Z,38.23
2023-01-13T18:19:08.928Z,38.58
2023-01-13T18:21:35.306Z,38.24
2023-01-13T18:24:01.663Z,38.35
2023-01-13T18:26:28.015Z,38.61
2023-01-13T18:28:54.391Z,38.51
2023-01-13T18:31:20.765Z,38.77
2023-01-13T18:33:47.129Z,38.53
2023-01-13T18:36:13.507Z,38.56
2023-01-13T18:38:39.862Z,38.65
2023-01-13T18:41:06.242Z,38.71
2023-01-13T18:43:32.602Z,38.33
2023-01-13T18:45:58.996Z,38.62
2023-01-13T18:48:25.359Z,38.86
2023-01-13T18:50:51.719Z,38.64
2023-01-13T18:53:18.097Z,38.58
2023-01-13T18:55:44.468Z,38.56
2023-01-13T18:58:10.820Z,38.73
2023-01-13T19:00:37.204Z,38.54
2023-01-13T19:05:32.265Z,38.42
2023-01-13T19:07:58.646Z,38.52
2023-01-13T19:10:25.008Z,38.85
2023-01-13T19:12:51.383Z,38.52
2023-01-13T19:15:17.759Z,38.73
2023-01-13T19:17:44.159Z,38.60
2023-01-13T19:20:10.549Z,38.46
2023-01-13T19:22:36.902Z,38.28
2023-01-13T19:25:03.271Z,38.50
2023-01-13T19:27:29.690Z,38.42
2023-01-13T19:29:56.080Z,38.56
2023-01-13T19:32:22.560Z,38.67
2023-01-13T19:34:48.979Z,38.34
2023-01-13T19:37:15.369Z,38.69
2023-01-13T19:39:41.731Z,38.76
2023-01-13T19:42:08.199Z,38.88
2023-01-13T19:44:34.586Z,38.40
2023-01-13T19:47:00.944Z,38.56
2023-01-13T19:49:27.302Z,38.62
2023-01-13T19:51:53.677Z,38.58
2023-01-13T19:54:20.024Z,38.56
2023-01-13T19:56:46.402Z,38.53
2023-01-13T19:59:12.770Z,38.51
2023-01-13T20:01:39.289Z,38.46
2023-01-13T20:04:05.686Z,38.52
2023-01-13T20:06:32.059Z,38.51
2023-01-13T20:08:58.412Z,38.58
2023-01-13T20:11:24.786Z,38.57
2023-01-13T20:13:51.149Z,38.41
2023-01-13T20:16:17.546Z,38.41
2023-01-13T20:18:43.946Z,38.55
2023-01-13T20:21:10.342Z,38.74
2023-01-13T20:23:36.777Z,38.78
2023-01-13T20:26:03.253Z,38.72
2023-01-13T20:28:29.615Z,38.79
2023-01-13T20:30:55.987Z,38.56
2023-01-13T20:33:22.346Z,38.85
2023-01-13T20:35:48.727Z,38.86
2023-01-13T20:38:15.083Z,38.71
2023-01-13T20:40:41.450Z,38.75
2023-01-13T20:43:07.824Z,38.72
2023-01-13T20:45:34.172Z,38.65
2023-01-13T20:48:00.524Z,38.54
2023-01-13T20:50:26.927Z,38.65
2023-01-13T20:52:53.297Z,38.75
2023-01-13T20:55:19.644Z,38.70
2023-01-13T20:57:46.055Z,38.42
2023-01-13T21:00:12.416Z,38.67
2023-01-13T21:02:38.797Z,38.77
2023-01-13T21:05:05.166Z,38.86
2023-01-13T21:07:31.564Z,38.81
2023-01-13T21:09:58.085Z,38.66
2023-01-13T21:12:24.469Z,38.82
2023-01-13T21:14:50.839Z,38.42
2023-01-13T21:17:17.232Z,38.54
2023-01-13T21:19:43.573Z,38.43
2023-01-13T21:22:09.936Z,38.57
2023-01-13T21:24:36.265Z,38.70
2023-01-13T21:27:02.669Z,38.66
2023-01-13T21:29:29.030Z,38.65
2023-01-13T21:31:55.437Z,38.60
2023-01-13T21:34:21.855Z,38.60
2023-01-13T21:36:48.189Z,38.76
2023-01-13T21:39:14.549Z,38.44
2023-01-13T21:41:40.929Z,38.45
2023-01-13T21:44:07.419Z,38.48
2023-01-13T21:46:33.803Z,38.53
2023-01-13T21:49:00.153Z,38.49
2023-01-13T21:51:26.537Z,38.36
2023-01-13T21:53:52.947Z,38.47
2023-01-13T21:56:19.310Z,38.39
2023-01-13T21:58:45.720Z,38.56
2023-01-13T22:01:12.258Z,38.30
2023-01-13T22:03:38.771Z,38.37
2023-01-13T22:06:05.588Z,38.36
2023-01-13T22:08:31.972Z,38.38
2023-01-13T22:10:58.637Z,38.59
2023-01-13T22:13:25.109Z,38.22
2023-01-13T22:15:51.578Z,38.40
2023-01-13T22:18:17.956Z,38.64
2023-01-13T22:20:44.327Z,38.57
2023-01-13T22:23:10.704Z,38.77
2023-01-13T22:25:37.108Z,38.32
2023-01-13T22:28:04.596Z,38.61
2023-01-13T22:30:30.967Z,38.53
2023-01-13T22:32:57.366Z,38.39
2023-01-13T22:35:23.773Z,38.56
2023-01-13T22:37:50.149Z,38.25
2023-01-13T22:40:16.534Z,38.26
2023-01-13T22:42:42.935Z,38.40
2023-01-13T22:45:09.299Z,38.33
2023-01-13T22:47:35.674Z,38.68
2023-01-13T22:50:02.037Z,38.52
2023-01-13T22:52:28.394Z,38.32
2023-01-13T22:54:54.767Z,38.24
2023-01-13T22:57:21.878Z,38.50
2023-01-13T22:59:50.078Z,38.44
2023-01-13T23:02:16.450Z,38.44
2023-01-13T23:04:42.834Z,38.29
2023-01-13T23:07:09.212Z,38.39
2023-01-13T23:09:35.584Z,38.54
2023-01-13T23:12:01.928Z,38.53
2023-01-13T23:14:28.334Z,38.58
2023-01-13T23:16:54.771Z,38.60
2023-01-13T23:19:21.536Z,38.63
2023-01-13T23:21:47.891Z,38.48
2023-01-13T23:24:14.275Z,38.43
2023-01-13T23:26:40.661Z,38.56
2023-01-13T23:29:07.032Z,38.52
2023-01-13T23:31:33.399Z,38.55
2023-01-13T23:33:59.783Z,38.66
2023-01-13T23:36:26.143Z,38.60
2023-01-13T23:38:52.537Z,38.41
2023-01-13T23:41:18.924Z,38.32
2023-01-13T23:43:45.303Z,38.67
2023-01-13T23:46:11.740Z,38.65
2023-01-13T23:48:38.135Z,38.69
2023-01-13T23:51:04.491Z,38.60
2023-01-13T23:53:30.873Z,38.70
2023-01-13T23:55:57.282Z,38.73
2023-01-13T23:58:23.631Z,38.83
